Time;durP1;ratioP1;P1;durP2;ratioP2;P2;SDS_P1;SDS_P2;PMS_P1;PMS_P2;Temp;Humidity;BMP_temperature;BMP_pressure;BME280_temperature;BME280_humidity;BME280_pressure;Samples;Min_cycle;Max_cycle;Signal;HPM_P1;HPM_P2
2022/02/25 00:02:09;;;;;;;14.25;2.83;;;3.50;99.90;;;;;;5086287;27;20042;-37
2022/02/25 00:04:35;;;;;;;12.65;2.55;;;3.50;99.90;;;;;;5088939;28;20090;-38
2022/02/25 00:07:01;;;;;;;14.85;2.50;;;3.50;99.90;;;;;;5087777;28;21410;-38
2022/02/25 00:09:27;;;;;;;17.98;2.65;;;3.50;99.90;;;;;;5093174;28;20024;-39
2022/02/25 00:11:52;;;;;;;9.60;2.22;;;3.60;99.90;;;;;;5092858;28;20020;-46
2022/02/25 00:14:18;;;;;;;11.85;2.00;;;3.60;99.90;;;;;;5081741;28;20496;-37
2022/02/25 00:16:44;;;;;;;15.15;2.05;;;3.70;99.90;;;;;;5089565;28;20020;-37
2022/02/25 00:19:10;;;;;;;11.63;2.53;;;3.70;99.90;;;;;;5093398;28;20111;-37
2022/02/25 00:21:36;;;;;;;17.13;2.58;;;3.80;99.90;;;;;;5089127;28;20032;-36
2022/02/25 00:24:02;;;;;;;11.40;2.47;;;3.80;99.90;;;;;;5096826;28;20024;-36
2022/02/25 00:26:27;;;;;;;13.18;2.50;;;3.80;99.90;;;;;;5088194;28;20036;-36
2022/02/25 00:28:53;;;;;;;10.07;1.98;;;3.80;99.90;;;;;;5088335;28;20055;-37
2022/02/25 00:31:19;;;;;;;14.55;2.38;;;3.80;99.90;;;;;;5085360;28;20122;-37
2022/02/25 00:33:44;;;;;;;11.70;1.92;;;3.90;99.90;;;;;;5091141;28;20030;-36
2022/02/25 00:36:10;;;;;;;12.15;2.70;;;3.90;99.90;;;;;;5084264;28;20541;-37
2022/02/25 00:38:36;;;;;;;13.13;2.30;;;3.90;99.90;;;;;;5085090;28;20029;-38
2022/02/25 00:41:01;;;;;;;11.77;2.30;;;4.00;99.90;;;;;;5086979;28;20092;-37
2022/02/25 00:43:27;;;;;;;11.55;2.78;;;4.00;99.90;;;;;;5090099;28;20043;-37
2022/02/25 00:45:53;;;;;;;14.13;2.47;;;4.00;99.90;;;;;;5083453;28;20036;-37
2022/02/25 00:48:19;;;;;;;16.83;2.38;;;4.10;99.90;;;;;;5091583;28;20040;-37
2022/02/25 00:50:44;;;;;;;12.35;2.20;;;4.10;99.90;;;;;;5088523;28;20028;-37
2022/02/25 00:53:10;;;;;;;13.00;2.30;;;4.10;99.90;;;;;;5092990;28;20048;-37
2022/02/25 00:55:36;;;;;;;11.57;2.35;;;4.10;99.90;;;;;;5085685;28;20033;-37
2022/02/25 00:58:02;;;;;;;13.70;2.00;;;4.10;99.90;;;;;;5090144;28;20043;-38
2022/02/25 01:00:28;;;;;;;9.15;2.30;;;4.20;99.90;;;;;;5068909;28;20549;-37
2022/02/25 01:02:54;;;;;;;11.93;2.45;;;4.10;99.90;;;;;;5091970;28;20031;-37
2022/02/25 01:05:20;;;;;;;12.88;2.28;;;4.10;99.90;;;;;;5091004;28;20020;-37
2022/02/25 01:07:46;;;;;;;11.73;2.70;;;4.20;99.90;;;;;;5094512;28;20446;-38
2022/02/25 01:10:17;;;;;;;12.27;2.15;;;4.20;99.90;;;;;;5091487;28;20024;-37
2022/02/25 01:12:45;;;;;;;13.63;2.47;;;4.20;99.90;;;;;;5093739;28;20024;-39
2022/02/25 01:15:12;;;;;;;10.02;2.45;;;4.30;99.90;;;;;;5089847;28;20335;-38
2022/02/25 01:17:38;;;;;;;14.20;2.60;;;4.30;99.90;;;;;;5089333;28;20028;-37
2022/02/25 01:20:05;;;;;;;15.35;2.45;;;4.30;99.90;;;;;;5089883;28;20020;-38
2022/02/25 01:22:31;;;;;;;12.02;2.30;;;4.30;99.90;;;;;;5092728;28;20059;-39
2022/02/25 01:24:57;;;;;;;13.60;2.63;;;4.30;99.90;;;;;;5084746;28;20047;-37
2022/02/25 01:27:22;;;;;;;14.75;2.40;;;4.30;99.90;;;;;;5089577;28;20071;-37
2022/02/25 01:29:48;;;;;;;12.10;2.92;;;4.30;99.90;;;;;;5084070;28;20016;-37
2022/02/25 01:32:14;;;;;;;12.75;2.70;;;4.40;99.90;;;;;;5084722;28;20024;-39
2022/02/25 01:34:40;;;;;;;12.13;2.40;;;4.40;99.90;;;;;;5084314;28;20028;-37
2022/02/25 01:37:06;;;;;;;12.13;2.50;;;4.40;99.90;;;;;;5086629;28;20046;-37
2022/02/25 01:39:32;;;;;;;15.57;2.40;;;4.50;99.90;;;;;;5091582;28;20024;-37
2022/02/25 01:41:58;;;;;;;13.80;2.00;;;4.50;99.90;;;;;;5088734;28;20040;-37
2022/02/25 01:44:27;;;;;;;12.55;2.38;;;4.40;99.90;;;;;;5082220;28;20471;-37
2022/02/25 01:46:53;;;;;;;15.82;2.20;;;4.50;99.90;;;;;;5085860;28;20032;-37
2022/02/25 01:49:20;;;;;;;16.05;2.40;;;4.50;99.90;;;;;;5090700;28;20056;-37
2022/02/25 01:51:47;;;;;;;12.65;2.22;;;4.50;99.90;;;;;;5088181;28;20028;-38
2022/02/25 01:54:13;;;;;;;13.75;2.22;;;4.50;99.90;;;;;;5090302;28;20486;-37
2022/02/25 01:56:41;;;;;;;11.40;2.38;;;4.50;99.90;;;;;;5086671;28;20096;-37
2022/02/25 01:59:07;;;;;;;8.65;1.98;;;4.50;99.90;;;;;;5093090;28;20020;-37
2022/02/25 02:01:34;;;;;;;16.48;2.50;;;4.50;99.90;;;;;;5088588;28;20020;-37
2022/02/25 02:04:00;;;;;;;15.52;2.00;;;4.40;99.90;;;;;;5080739;28;20035;-37
2022/02/25 02:06:26;;;;;;;15.77;2.47;;;4.40;99.90;;;;;;5083583;28;20100;-37
2022/02/25 02:08:52;;;;;;;13.30;2.72;;;4.40;99.90;;;;;;5088017;28;20044;-37
2022/02/25 02:11:40;;;;;;;13.20;2.20;;;4.30;99.90;;;;;;5086433;28;20052;-37
2022/02/25 02:14:12;;;;;;;13.52;2.53;;;4.20;99.90;;;;;;5087897;28;20123;-36
2022/02/25 02:16:39;;;;;;;11.38;2.47;;;4.10;99.90;;;;;;5089792;28;20441;-37
2022/02/25 02:19:04;;;;;;;14.63;3.05;;;4.00;99.90;;;;;;5087636;28;20021;-37
2022/02/25 02:21:31;;;;;;;14.27;2.50;;;4.00;99.90;;;;;;5089227;28;20067;-41
2022/02/25 02:23:59;;;;;;;14.02;2.30;;;4.00;99.90;;;;;;5085951;28;20021;-37
2022/02/25 02:26:27;;;;;;;11.07;2.20;;;3.90;99.90;;;;;;5084922;28;20024;-37
2022/02/25 02:28:53;;;;;;;13.95;2.55;;;3.90;99.90;;;;;;5096730;28;20042;-37
2022/02/25 02:31:19;;;;;;;17.77;2.50;;;3.80;99.90;;;;;;5088611;28;20463;-37
2022/02/25 02:33:45;;;;;;;12.05;2.00;;;3.80;99.90;;;;;;5080552;28;20590;-39
2022/02/25 02:36:11;;;;;;;16.92;2.70;;;3.80;99.90;;;;;;5091677;28;20024;-37
2022/02/25 02:38:38;;;;;;;13.13;2.53;;;3.70;99.90;;;;;;5093541;28;20103;-37
2022/02/25 02:41:06;;;;;;;14.23;2.08;;;3.70;99.90;;;;;;5086706;28;20031;-36
2022/02/25 02:43:32;;;;;;;16.73;2.97;;;3.70;99.90;;;;;;5085867;28;20035;-37
2022/02/25 02:45:58;;;;;;;14.25;2.65;;;3.60;99.90;;;;;;5083933;28;20100;-37
2022/02/25 02:48:24;;;;;;;11.90;2.40;;;3.60;99.90;;;;;;5094791;28;20087;-37
2022/02/25 02:50:50;;;;;;;16.27;2.58;;;3.60;99.90;;;;;;5092430;28;20046;-37
2022/02/25 02:53:16;;;;;;;18.00;3.15;;;3.60;99.90;;;;;;5093791;28;20054;-37
2022/02/25 02:55:43;;;;;;;15.70;2.63;;;3.60;99.90;;;;;;5086793;28;20024;-36
2022/02/25 02:58:11;;;;;;;12.63;2.50;;;3.50;99.90;;;;;;5085767;28;20035;-37
2022/02/25 03:00:38;;;;;;;15.75;2.75;;;3.50;99.90;;;;;;5096727;28;20071;-37
2022/02/25 03:03:03;;;;;;;13.50;2.45;;;3.50;99.90;;;;;;5089196;28;20020;-37
2022/02/25 03:05:29;;;;;;;16.50;2.72;;;3.50;99.90;;;;;;5089397;28;20085;-37
2022/02/25 03:07:55;;;;;;;20.02;2.80;;;3.40;99.90;;;;;;5084038;28;20043;-37
2022/02/25 03:10:21;;;;;;;10.77;1.98;;;3.30;99.90;;;;;;5092642;28;20055;-37
2022/02/25 03:12:47;;;;;;;14.88;2.65;;;3.20;99.90;;;;;;5088486;28;20033;-37
2022/02/25 03:15:14;;;;;;;14.80;2.13;;;3.10;99.90;;;;;;5086628;28;20020;-37
2022/02/25 03:17:41;;;;;;;14.60;2.95;;;3.10;99.90;;;;;;5089179;28;20017;-42
2022/02/25 03:20:08;;;;;;;16.15;2.78;;;3.00;99.90;;;;;;5088015;28;20032;-37
2022/02/25 03:22:35;;;;;;;13.73;2.45;;;2.90;99.90;;;;;;5086133;28;20377;-38
2022/02/25 03:25:01;;;;;;;13.02;2.30;;;2.90;99.90;;;;;;5092499;28;20028;-37
2022/02/25 03:27:28;;;;;;;9.52;2.47;;;2.80;99.90;;;;;;5090420;28;20047;-39
2022/02/25 03:29:54;;;;;;;16.80;2.88;;;2.70;99.90;;;;;;5093387;28;20037;-37
2022/02/25 03:32:21;;;;;;;15.85;3.22;;;2.80;99.90;;;;;;5090417;28;20024;-37
2022/02/25 03:34:47;;;;;;;12.02;2.65;;;2.70;99.90;;;;;;5093062;28;20032;-37
2022/02/25 03:37:13;;;;;;;14.43;2.97;;;2.60;99.90;;;;;;5089174;28;20577;-47
2022/02/25 03:39:39;;;;;;;14.98;2.40;;;2.60;99.90;;;;;;5094450;28;20032;-41
2022/02/25 03:42:05;;;;;;;15.95;2.55;;;2.60;99.90;;;;;;5088313;28;20024;-40
2022/02/25 03:44:30;;;;;;;15.13;2.95;;;2.60;99.90;;;;;;5085353;28;20032;-37
2022/02/25 03:46:56;;;;;;;16.75;2.33;;;2.60;99.90;;;;;;5089941;28;20032;-40
2022/02/25 03:49:22;;;;;;;15.07;2.67;;;2.50;99.90;;;;;;5086774;28;20112;-37
2022/02/25 03:51:47;;;;;;;17.27;2.83;;;2.60;99.90;;;;;;5085693;28;20040;-40
2022/02/25 03:54:13;;;;;;;14.02;3.03;;;2.50;99.90;;;;;;5088985;28;20024;-37
2022/02/25 03:56:39;;;;;;;15.90;2.53;;;2.50;99.90;;;;;;5089518;28;20080;-37
2022/02/25 03:59:05;;;;;;;10.80;2.22;;;2.50;99.90;;;;;;5085381;28;20078;-37
2022/02/25 04:01:31;;;;;;;16.45;2.13;;;2.50;99.90;;;;;;5088780;28;20036;-37
2022/02/25 04:03:57;;;;;;;19.27;2.55;;;2.40;99.90;;;;;;5088646;28;20061;-37
2022/02/25 04:06:23;;;;;;;12.15;2.28;;;2.40;99.90;;;;;;5092912;28;20020;-38
2022/02/25 04:08:49;;;;;;;12.73;2.10;;;2.40;99.90;;;;;;5089431;28;20104;-37
2022/02/25 04:11:15;;;;;;;15.30;3.28;;;2.40;99.90;;;;;;5085501;28;20028;-37
2022/02/25 04:13:40;;;;;;;15.98;2.75;;;2.40;99.90;;;;;;5091450;28;20077;-36
2022/02/25 04:16:07;;;;;;;17.13;3.30;;;2.40;99.90;;;;;;5087375;28;20083;-36
2022/02/25 04:18:33;;;;;;;17.77;2.78;;;2.40;99.90;;;;;;5095139;28;20033;-38
2022/02/25 04:20:59;;;;;;;12.23;2.75;;;2.40;99.90;;;;;;5084287;28;20040;-37
2022/02/25 04:23:25;;;;;;;16.92;3.10;;;2.40;99.90;;;;;;5088304;28;20037;-37
2022/02/25 04:25:51;;;;;;;18.77;2.33;;;2.40;99.90;;;;;;5088782;28;20055;-37
2022/02/25 04:28:16;;;;;;;12.45;2.38;;;2.40;99.90;;;;;;5083677;28;20069;-37
2022/02/25 04:30:43;;;;;;;13.10;2.67;;;2.40;99.90;;;;;;5085821;28;20472;-37
2022/02/25 04:33:09;;;;;;;15.60;2.70;;;2.40;99.90;;;;;;5088594;28;20420;-37
2022/02/25 04:35:36;;;;;;;13.57;2.78;;;2.30;99.90;;;;;;5093336;28;20040;-38
2022/02/25 04:38:03;;;;;;;16.98;2.70;;;2.40;99.90;;;;;;5091887;28;20024;-37
2022/02/25 04:40:30;;;;;;;16.05;3.22;;;2.40;99.90;;;;;;5091589;28;20035;-37
2022/02/25 04:42:55;;;;;;;12.73;2.35;;;2.50;99.90;;;;;;5093464;28;20028;-37
2022/02/25 04:45:22;;;;;;;13.93;2.28;;;2.40;99.90;;;;;;5084905;28;20067;-37
2022/02/25 04:47:48;;;;;;;16.60;2.53;;;2.40;99.90;;;;;;5089163;28;20211;-37
2022/02/25 04:50:15;;;;;;;14.93;2.83;;;2.40;99.90;;;;;;5096675;28;20478;-37
2022/02/25 04:52:41;;;;;;;16.20;2.78;;;2.40;99.90;;;;;;5082638;28;20392;-37
2022/02/25 04:55:08;;;;;;;17.80;3.25;;;2.40;99.90;;;;;;5091671;28;20498;-37
2022/02/25 04:57:34;;;;;;;12.23;2.30;;;2.40;99.90;;;;;;5084579;28;20012;-37
2022/02/25 05:00:00;;;;;;;15.68;3.00;;;2.50;99.90;;;;;;5084788;28;20148;-37
2022/02/25 05:02:25;;;;;;;19.48;2.92;;;2.50;99.90;;;;;;5086089;28;20484;-37
2022/02/25 05:04:51;;;;;;;11.32;2.25;;;2.50;99.90;;;;;;5091176;28;20036;-37
2022/02/25 05:07:17;;;;;;;14.63;2.92;;;2.60;99.90;;;;;;5089483;28;20043;-37
2022/02/25 05:09:42;;;;;;;13.18;2.28;;;2.60;99.90;;;;;;5080950;28;20116;-39
2022/02/25 05:12:08;;;;;;;11.82;2.63;;;2.60;99.90;;;;;;5084367;28;20068;-38
2022/02/25 05:22:47;;;;;;;13.45;2.50;;;2.70;99.90;;;;;;5098059;28;20047;-37
2022/02/25 05:25:13;;;;;;;15.77;2.60;;;2.80;99.90;;;;;;5087591;28;20103;-37
2022/02/25 05:27:38;;;;;;;10.13;2.45;;;2.80;99.90;;;;;;5093088;28;20467;-37
2022/02/25 05:30:05;;;;;;;14.18;2.67;;;2.80;99.90;;;;;;5090896;28;20028;-37
2022/02/25 05:32:30;;;;;;;15.73;2.78;;;2.90;99.90;;;;;;5087178;28;20127;-37
2022/02/25 05:34:56;;;;;;;12.73;3.08;;;2.80;99.90;;;;;;5084487;28;20032;-36
2022/02/25 05:37:21;;;;;;;15.90;2.95;;;2.90;99.90;;;;;;5087378;28;20017;-37
2022/02/25 05:39:47;;;;;;;17.75;2.78;;;2.80;99.90;;;;;;5091074;28;20028;-37
2022/02/25 05:42:13;;;;;;;17.83;2.92;;;2.80;99.90;;;;;;5090444;28;20032;-37
2022/02/25 05:44:38;;;;;;;16.95;3.35;;;2.80;99.90;;;;;;5088912;28;20021;-38
2022/02/25 05:47:04;;;;;;;14.50;2.80;;;2.90;99.90;;;;;;5087180;28;20028;-37
2022/02/25 05:49:30;;;;;;;21.25;2.92;;;2.90;99.90;;;;;;5082012;28;20445;-37
2022/02/25 05:51:56;;;;;;;16.13;2.85;;;2.90;99.90;;;;;;5082832;28;20032;-40
2022/02/25 05:54:22;;;;;;;16.60;2.92;;;3.00;99.90;;;;;;5089001;28;20036;-38
2022/02/25 05:56:48;;;;;;;15.50;2.88;;;3.00;99.90;;;;;;5096947;28;20020;-39
2022/02/25 05:59:14;;;;;;;18.98;2.80;;;3.10;99.90;;;;;;5080910;28;20028;-39
2022/02/25 06:01:39;;;;;;;16.05;2.85;;;3.10;99.90;;;;;;5082486;28;20438;-35
2022/02/25 06:04:05;;;;;;;16.25;3.00;;;3.10;99.90;;;;;;5088479;28;20025;-35
2022/02/25 06:06:35;;;;;;;17.20;3.50;;;3.20;99.90;;;;;;5088960;28;20107;-35
2022/02/25 06:09:05;;;;;;;16.20;3.35;;;3.20;99.90;;;;;;5081498;28;20032;-35
2022/02/25 06:11:31;;;;;;;23.05;3.83;;;3.20;99.90;;;;;;5083626;28;20103;-35
2022/02/25 06:13:56;;;;;;;18.25;3.15;;;3.20;99.90;;;;;;5087691;28;20033;-34
2022/02/25 06:16:22;;;;;;;23.73;3.50;;;3.20;99.90;;;;;;5095617;28;20090;-35
2022/02/25 06:18:48;;;;;;;16.05;3.35;;;3.30;99.90;;;;;;5074232;28;20040;-35
2022/02/25 06:21:13;;;;;;;18.73;3.20;;;3.20;99.90;;;;;;5085033;28;20039;-35
2022/02/25 06:23:39;;;;;;;18.25;3.38;;;3.30;99.90;;;;;;5098817;28;20059;-36
2022/02/25 06:26:07;;;;;;;16.85;2.90;;;3.30;99.90;;;;;;5090745;28;20025;-36
2022/02/25 06:28:33;;;;;;;20.08;3.00;;;3.30;99.90;;;;;;5099013;28;20032;-35
2022/02/25 06:30:59;;;;;;;19.88;3.85;;;3.30;99.90;;;;;;5096382;28;20071;-35
2022/02/25 06:33:24;;;;;;;22.17;3.20;;;3.20;99.90;;;;;;5093774;28;20039;-35
2022/02/25 06:35:50;;;;;;;18.98;3.45;;;3.20;99.90;;;;;;5086833;28;20049;-35
2022/02/25 06:38:16;;;;;;;16.77;3.33;;;3.20;99.90;;;;;;5100190;28;20111;-35
2022/02/25 06:40:48;;;;;;;15.90;3.13;;;3.10;99.90;;;;;;5098564;28;20031;-35
2022/02/25 06:43:13;;;;;;;;;;;3.10;99.90;;;;;;5096655;28;20032;-35
2022/02/25 06:45:39;;;;;;;20.15;3.53;;;3.10;99.90;;;;;;5099433;28;20401;-35
2022/02/25 06:48:05;;;;;;;14.18;3.30;;;3.10;99.90;;;;;;5087808;28;20068;-35
2022/02/25 06:50:30;;;;;;;19.10;3.70;;;3.00;99.90;;;;;;5093949;28;20050;-35
2022/02/25 06:52:56;;;;;;;18.60;3.38;;;3.00;99.90;;;;;;5096451;28;20032;-36
2022/02/25 06:55:28;;;;;;;18.75;3.38;;;3.00;99.90;;;;;;5088359;28;20503;-35
2022/02/25 06:57:54;;;;;;;;;;;3.00;99.90;;;;;;5090838;28;20475;-36
2022/02/25 07:00:24;;;;;;;20.90;3.83;;;3.10;99.90;;;;;;5079155;28;19973;-35
2022/02/25 07:02:50;;;;;;;14.05;3.28;;;3.10;99.90;;;;;;5077794;28;20036;-34
2022/02/25 07:05:23;;;;;;;17.98;3.67;;;3.20;99.90;;;;;;5080746;28;20080;-35
2022/02/25 07:07:51;;;;;;;18.10;3.65;;;3.30;99.90;;;;;;5078272;28;20047;-35
2022/02/25 07:10:17;;;;;;;22.83;3.95;;;3.30;99.90;;;;;;5062493;28;20048;-38
2022/02/25 07:12:50;;;;;;;18.50;3.10;;;3.40;99.90;;;;;;5078620;28;20017;-35
2022/02/25 07:15:18;;;;;;;19.02;3.55;;;3.50;99.90;;;;;;5080339;28;20029;-38
2022/02/25 07:17:44;;;;;;;28.98;3.65;;;3.60;99.90;;;;;;5080394;28;20047;-43
2022/02/25 07:20:10;;;;;;;20.25;3.50;;;3.60;99.90;;;;;;5062244;28;20032;-36
2022/02/25 07:22:37;;;;;;;17.10;4.03;;;3.70;99.90;;;;;;5062470;28;20035;-36
2022/02/25 07:25:03;;;;;;;19.83;4.07;;;3.70;99.90;;;;;;5065122;28;20060;-36
2022/02/25 07:27:29;;;;;;;16.45;3.80;;;3.80;99.90;;;;;;5082355;28;20594;-36
2022/02/25 07:29:55;;;;;;;20.85;3.40;;;3.90;99.90;;;;;;5083008;28;20021;-37
2022/02/25 07:32:21;;;;;;;18.23;3.88;;;3.90;99.90;;;;;;5083717;28;20033;-38
2022/02/25 07:34:47;;;;;;;20.77;3.53;;;3.90;99.90;;;;;;5082422;28;20051;-36
2022/02/25 07:37:13;;;;;;;20.67;4.05;;;4.00;99.90;;;;;;5083418;28;20119;-36
2022/02/25 07:39:38;;;;;;;15.50;3.70;;;4.00;99.90;;;;;;5083838;28;20025;-36
2022/02/25 07:42:04;;;;;;;16.05;3.63;;;4.00;99.90;;;;;;5082751;28;20028;-35
2022/02/25 07:44:30;;;;;;;19.45;3.67;;;4.10;99.90;;;;;;5083692;28;20056;-35
2022/02/25 07:46:56;;;;;;;19.33;3.78;;;4.20;99.90;;;;;;5081559;28;20032;-36
2022/02/25 07:49:21;;;;;;;18.27;3.75;;;4.20;99.90;;;;;;5083132;28;20074;-36
2022/02/25 07:51:52;;;;;;;19.50;4.30;;;4.20;99.90;;;;;;5083184;28;20408;-36
2022/02/25 07:54:19;;;;;;;21.70;3.80;;;4.20;99.90;;;;;;5083138;28;20147;-36
2022/02/25 07:56:50;;;;;;;15.48;3.53;;;4.20;99.90;;;;;;5083495;28;20037;-36
2022/02/25 07:59:16;;;;;;;22.77;4.18;;;4.40;99.90;;;;;;5064111;28;20086;-36
2022/02/25 08:01:42;;;;;;;16.55;3.30;;;4.60;99.90;;;;;;5082218;28;20025;-37
2022/02/25 08:04:08;;;;;;;13.60;3.30;;;4.70;99.90;;;;;;5082531;28;20460;-36
2022/02/25 08:06:35;;;;;;;15.88;4.22;;;4.70;99.90;;;;;;5082983;28;20025;-36
2022/02/25 08:09:00;;;;;;;16.75;2.95;;;4.70;99.90;;;;;;5083000;28;20040;-37
2022/02/25 08:11:26;;;;;;;18.10;3.88;;;4.80;99.90;;;;;;5081214;28;20031;-37
2022/02/25 08:13:52;;;;;;;17.02;3.28;;;4.80;99.90;;;;;;5083218;28;20021;-37
2022/02/25 08:16:17;;;;;;;22.65;3.72;;;4.80;99.90;;;;;;5082310;28;20020;-37
2022/02/25 08:18:43;;;;;;;17.50;3.72;;;4.90;99.90;;;;;;5083090;28;20031;-36
2022/02/25 08:21:09;;;;;;;16.70;3.85;;;5.00;99.90;;;;;;5082326;28;20024;-36
2022/02/25 08:23:35;;;;;;;17.45;3.45;;;5.20;99.90;;;;;;5082345;28;20024;-36
2022/02/25 08:26:01;;;;;;;16.15;3.42;;;5.50;99.90;;;;;;5081279;28;20025;-42
2022/02/25 08:28:27;;;;;;;18.08;3.60;;;5.80;99.90;;;;;;5081840;28;20041;-41
2022/02/25 08:31:01;;;;;;;19.83;3.35;;;5.90;99.90;;;;;;5081380;28;20139;-43
2022/02/25 08:33:27;;;;;;;17.92;3.63;;;5.80;99.90;;;;;;5079808;28;20029;-39
2022/02/25 08:35:55;;;;;;;18.20;3.10;;;5.70;99.90;;;;;;5082297;28;20044;-40
2022/02/25 08:38:23;;;;;;;13.45;3.03;;;5.60;99.90;;;;;;5081834;28;20036;-41
2022/02/25 08:40:49;;;;;;;15.23;3.15;;;5.40;99.90;;;;;;5080900;28;20083;-45
2022/02/25 08:43:15;;;;;;;17.63;3.63;;;5.30;99.90;;;;;;5080754;28;20032;-36
2022/02/25 08:45:41;;;;;;;16.10;3.20;;;5.30;99.90;;;;;;5080613;28;20027;-36
2022/02/25 08:48:13;;;;;;;19.52;3.35;;;5.20;99.90;;;;;;5081004;28;20049;-36
2022/02/25 08:50:40;;;;;;;15.20;3.30;;;5.20;99.90;;;;;;5063886;28;20468;-36
2022/02/25 08:53:06;;;;;;;14.60;3.17;;;5.30;99.90;;;;;;5082288;28;20017;-36
2022/02/25 08:55:32;;;;;;;14.40;2.88;;;5.40;99.90;;;;;;5080020;28;20028;-36
2022/02/25 08:57:58;;;;;;;17.00;3.03;;;5.50;99.90;;;;;;5081883;28;20093;-40
2022/02/25 09:00:24;;;;;;;15.02;3.35;;;5.60;99.90;;;;;;5080063;28;20031;-38
2022/02/25 09:02:51;;;;;;;13.85;3.05;;;5.80;99.90;;;;;;5081704;28;20529;-37
2022/02/25 09:05:18;;;;;;;14.45;2.92;;;5.90;99.90;;;;;;5082112;28;20081;-36
2022/02/25 09:07:45;;;;;;;9.65;2.65;;;6.10;99.90;;;;;;5081067;28;20043;-37
2022/02/25 09:10:13;;;;;;;23.58;3.50;;;6.20;99.90;;;;;;5080611;28;20158;-36
2022/02/25 09:12:39;;;;;;;15.20;2.95;;;6.30;99.90;;;;;;5081401;28;20020;-36
2022/02/25 09:15:08;;;;;;;15.52;3.13;;;6.60;99.90;;;;;;5080144;28;20025;-40
2022/02/25 09:17:34;;;;;;;19.88;3.40;;;6.80;99.90;;;;;;5081752;28;20053;-37
2022/02/25 09:20:00;;;;;;;16.52;3.55;;;7.10;99.90;;;;;;5081296;28;20503;-37
2022/02/25 09:22:26;;;;;;;21.77;3.83;;;7.20;99.90;;;;;;5063924;28;20035;-37
2022/02/25 09:24:52;;;;;;;13.32;2.90;;;7.10;99.90;;;;;;5080991;28;20425;-37
2022/02/25 09:27:18;;;;;;;13.63;3.20;;;6.90;99.90;;;;;;5080374;28;20020;-37
2022/02/25 09:29:46;;;;;;;15.98;2.70;;;6.70;99.90;;;;;;5079160;28;20074;-40
2022/02/25 09:32:12;;;;;;;16.48;2.83;;;6.50;99.90;;;;;;5081422;28;20029;-37
2022/02/25 09:34:38;;;;;;;14.00;2.30;;;6.30;99.90;;;;;;5081101;28;20040;-37
2022/02/25 09:37:04;;;;;;;11.43;2.58;;;6.20;99.90;;;;;;5079896;28;20025;-36
2022/02/25 09:39:31;;;;;;;16.25;2.60;;;6.10;99.90;;;;;;5081737;28;20021;-36
2022/02/25 09:41:58;;;;;;;14.63;2.00;;;6.00;99.90;;;;;;5080760;28;20432;-37
2022/02/25 09:44:24;;;;;;;9.48;1.85;;;6.00;99.90;;;;;;5080138;28;20024;-36
2022/02/25 09:46:50;;;;;;;13.00;2.33;;;5.90;99.90;;;;;;5080078;28;20027;-37
2022/02/25 09:49:16;;;;;;;15.60;2.47;;;5.90;99.90;;;;;;5080823;28;20052;-37
2022/02/25 09:51:41;;;;;;;17.77;2.90;;;5.90;99.90;;;;;;5081085;28;20025;-37
2022/02/25 09:54:08;;;;;;;16.92;2.85;;;6.00;99.90;;;;;;5081001;28;20071;-37
2022/02/25 09:56:34;;;;;;;16.23;2.80;;;6.20;99.90;;;;;;5063278;28;20025;-37
2022/02/25 09:59:01;;;;;;;20.38;3.35;;;6.50;99.90;;;;;;5080247;28;20028;-38
2022/02/25 10:01:36;;;;;;;15.65;2.85;;;6.90;99.90;;;;;;5081359;28;20112;-37
2022/02/25 10:04:22;;;;;;;23.77;3.88;;;8.20;99.90;;;;;;5080453;28;20035;-37
2022/02/25 10:06:49;;;;;;;15.13;2.55;;;9.20;99.90;;;;;;5080948;28;20031;-37
2022/02/25 10:09:31;;;;;;;12.77;2.42;;;10.00;99.90;;;;;;5081114;28;20089;-37
2022/02/25 10:12:04;;;;;;;19.45;3.67;;;11.10;99.90;;;;;;5080349;28;20029;-37
2022/02/25 10:14:36;;;;;;;23.02;3.40;;;10.40;99.90;;;;;;5080991;28;20021;-37
2022/02/25 10:17:20;;;;;;;17.98;3.53;;;10.60;99.90;;;;;;5080574;28;20055;-37
2022/02/25 10:20:00;;;;;;;18.23;3.17;;;11.50;99.90;;;;;;5080733;28;20088;-37
2022/02/25 10:22:31;;;;;;;14.02;3.08;;;12.00;99.90;;;;;;5081195;28;20058;-38
2022/02/25 10:24:58;;;;;;;20.77;3.55;;;12.40;99.90;;;;;;5080068;28;20036;-38
2022/02/25 10:27:25;;;;;;;14.70;2.72;;;13.20;99.90;;;;;;5080747;28;20048;-38
2022/02/25 10:29:55;;;;;;;17.60;3.50;;;12.80;99.90;;;;;;5080091;28;20020;-38
2022/02/25 10:32:42;;;;;;;21.67;3.20;;;12.10;99.90;;;;;;5080680;28;20478;-38
2022/02/25 10:35:35;;;;;;;16.83;2.92;;;11.70;99.90;;;;;;5080693;28;20017;-38
2022/02/25 10:38:17;;;;;;;17.88;3.28;;;10.60;99.90;;;;;;5080406;28;20456;-39
2022/02/25 10:40:44;;;;;;;;;;;10.20;99.90;;;;;;5081307;28;20092;-39
2022/02/25 10:43:22;;;;;;;16.25;2.78;;;9.60;99.90;;;;;;5079184;28;19961;-46
2022/02/25 10:45:50;;;;;;;16.77;3.15;;;9.80;99.90;;;;;;5080337;28;20028;-39
2022/02/25 10:48:19;;;;;;;21.20;3.20;;;9.60;99.90;;;;;;5079497;28;20098;-38
2022/02/25 10:50:55;;;;;;;13.98;2.67;;;9.20;99.90;;;;;;5080041;28;20471;-38
2022/02/25 10:53:48;;;;;;;19.65;3.22;;;9.10;99.90;;;;;;5080636;28;20040;-38
2022/02/25 10:56:17;;;;;;;22.70;3.50;;;8.80;99.90;;;;;;5075517;28;20096;-38
2022/02/25 10:58:46;;;;;;;19.92;3.42;;;8.80;99.90;;;;;;5083134;28;20021;-38
2022/02/25 11:01:13;;;;;;;15.93;3.50;;;9.20;99.90;;;;;;5084616;28;20029;-38
2022/02/25 11:03:57;;;;;;;22.38;3.78;;;9.10;99.90;;;;;;5082170;28;20031;-38
2022/02/25 11:06:24;;;;;;;16.98;3.15;;;9.00;99.90;;;;;;5083902;28;20028;-37
2022/02/25 11:09:04;;;;;;;19.00;3.25;;;8.60;99.90;;;;;;5082585;28;20119;-36
2022/02/25 11:11:33;;;;;;;20.10;3.60;;;8.20;99.90;;;;;;5083988;28;20028;-36
2022/02/25 11:17:45;;;;;;;11.30;1.40;;;7.20;99.90;;;;;;5077410;22;20061;-86
2022/02/25 11:20:12;;;;;;;12.32;1.80;;;6.20;99.90;;;;;;5048965;28;20025;-87
2022/02/25 11:22:40;;;;;;;12.15;2.10;;;5.90;99.90;;;;;;5032645;28;20023;-86
2022/02/25 11:25:17;;;;;;;7.93;1.02;;;5.60;99.90;;;;;;5065760;28;20055;-87
2022/02/25 11:27:44;;;;;;;7.28;1.10;;;5.20;99.90;;;;;;5065019;28;20447;-86
2022/02/25 11:30:24;;;;;;;7.40;1.20;;;4.90;99.90;;;;;;5065387;28;20040;-86
2022/02/25 11:32:56;;;;;;;6.72;1.17;;;4.80;99.90;;;;;;5082152;28;20028;-86
2022/02/25 11:35:24;;;;;;;;;;;4.70;99.90;;;;;;5066558;28;20021;-91
2022/02/25 11:37:57;;;;;;;8.32;1.15;;;4.70;99.90;;;;;;5070051;28;19904;-88
2022/02/25 11:40:44;;;;;;;6.90;1.00;;;4.60;99.90;;;;;;5065949;28;20024;-89
2022/02/25 11:43:10;;;;;;;8.07;1.30;;;4.60;99.90;;;;;;5091517;28;20017;-87
2022/02/25 11:45:49;;;;;;;10.02;1.80;;;4.60;99.90;;;;;;5053510;28;20451;-89
2022/02/25 11:48:21;;;;;;;14.95;1.80;;;4.70;99.90;;;;;;5070696;28;20025;-89
2022/02/25 11:50:50;;;;;;;9.50;2.00;;;4.80;99.90;;;;;;5065557;28;20028;-88
2022/02/25 11:53:24;;;;;;;9.13;1.70;;;4.70;99.90;;;;;;5063498;28;20025;-88
2022/02/25 11:55:52;;;;;;;9.30;1.55;;;4.80;99.90;;;;;;5065558;28;20051;-88
2022/02/25 11:58:39;;;;;;;13.82;1.90;;;4.80;99.90;;;;;;5047712;28;20021;-87
2022/02/25 12:01:17;;;;;;;11.73;1.80;;;4.80;99.90;;;;;;5081332;28;20485;-87
2022/02/25 12:04:05;;;;;;;10.50;2.20;;;4.80;99.90;;;;;;5048320;28;20054;-87
2022/02/25 12:06:57;;;;;;;8.20;2.35;;;5.30;99.90;;;;;;5064875;28;20017;-87
2022/02/25 12:09:41;;;;;;;10.35;1.40;;;6.90;99.90;;;;;;5063752;28;20033;-87
2022/02/25 12:12:28;;;;;;;10.45;1.55;;;9.20;99.90;;;;;;5081311;28;20037;-87
2022/02/25 12:15:18;;;;;;;11.98;2.03;;;11.20;99.90;;;;;;5079940;28;20036;-87
2022/02/25 12:17:48;;;;;;;10.00;1.75;;;12.40;99.90;;;;;;5057253;28;20048;-86
2022/02/25 12:20:23;;;;;;;8.25;1.75;;;13.30;99.90;;;;;;5063757;28;20032;-86
2022/02/25 12:23:00;;;;;;;9.77;1.75;;;14.70;99.90;;;;;;5080077;28;20480;-85
2022/02/25 12:25:43;;;;;;;10.80;2.05;;;14.90;92.60;;;;;;5064156;28;20025;-84
2022/02/25 12:28:26;;;;;;;7.53;1.50;;;15.90;97.60;;;;;;5045916;28;20041;-83
2022/02/25 12:31:10;;;;;;;7.88;1.48;;;15.70;76.90;;;;;;5065032;28;20048;-84
2022/02/25 12:33:45;;;;;;;8.93;1.48;;;16.50;73.20;;;;;;5080671;28;20025;-83
2022/02/25 12:36:29;;;;;;;8.35;1.40;;;16.50;74.00;;;;;;5079228;28;20120;-83
2022/02/25 12:39:09;;;;;;;8.50;1.77;;;16.90;71.40;;;;;;5065281;28;20032;-83
2022/02/25 12:41:38;;;;;;;7.32;1.58;;;16.60;64.80;;;;;;5064239;28;20013;-83
2022/02/25 12:44:08;;;;;;;8.43;1.15;;;16.90;67.40;;;;;;5064362;28;20013;-83
2022/02/25 12:46:36;;;;;;;10.77;1.67;;;17.60;71.30;;;;;;5063687;28;20021;-83
2022/02/25 12:49:04;;;;;;;7.78;1.30;;;18.00;65.50;;;;;;5063279;28;20048;-83
2022/02/25 12:51:30;;;;;;;8.80;1.63;;;17.10;59.40;;;;;;5063786;28;20136;-83
2022/02/25 12:54:02;;;;;;;8.85;1.48;;;16.50;60.40;;;;;;5029387;28;20021;-82
2022/02/25 12:56:35;;;;;;;6.93;1.50;;;16.90;62.70;;;;;;5065295;28;20033;-83
2022/02/25 12:59:09;;;;;;;9.15;1.88;;;15.10;64.20;;;;;;5062531;28;20112;-83
2022/02/25 13:01:46;;;;;;;9.27;1.50;;;15.50;71.20;;;;;;5062215;28;20021;-83
2022/02/25 13:04:15;;;;;;;6.95;1.63;;;15.90;93.50;;;;;;5063211;28;20024;-83
2022/02/25 13:06:42;;;;;;;9.98;1.58;;;15.80;84.40;;;;;;5061715;28;20017;-83